Аэропорт: Емельяново. Красноярск

ICAO: UNKL

METAR:
2020-10-24 06:30:00
UNKL 240630Z 33003MPS 9999 SCT043 03/M06 Q1018 R29/CLRD65 NOSIG RMK QFE738
METAR:
2020-10-24 05:00:00
TAF UNKL 240500Z 2406/2506 24003G08MPS 9999 SCT020CB TEMPO 2406/2409 6000 -SHSN BKN017CB FM240900 26003G10MPS 8000 -SHSN BKN016CB TEMPO 2409/2415 3100 -SHSN SCT011 BKN016CB TEMPO 2421/2503 3100 -SHSN BKN011 BKN016CB TEMPO 2503/2506 28008G14MPS